Rockville, MD

7:01 PM EDT on August 30, 2014 (GMT -0400)
Washington | Change Station
CLOSE
Current Station
Airport
Location: Washington,
Elevation: 13 ft
Nearby Weather Stations

Elev 13 ft 38.85 °N, 77.03 °W | Updated 9 minutes ago

Overcast
Overcast
83 °F
Feels Like 87 °F
N
10
Wind Variable Wind from SE

Today
High -- | Low -- °F
--% Chance of Precip.
Yesterday
High -- | Low -- °F
Precip. -- in
6:35 AM 7:42 PM
Waxing Crescent, 25% visible
Pressure 30.12 in
Visibility 10.0 miles
Clouds Overcast 4800 ft
Heat Index 87 °F
Dew Point 70 °F
Humidity 65%
Rainfall 0.00 in
Snow Depth Not available.
UV 0 out of 12
Pollen 9.50 out of 12
Air Quality Not available.
Flu Activity Not available.
METAR KDCA 302252Z 13009KT 10SM OVC048 28/21 A3011 RMK AO2 SLP197 CB DSNT NW-N MOV NE T02830211

More Conditions Fewer Conditions

Pressure 30.12 in
Visibility 10.0 miles
Clouds Overcast 4800 ft
Heat Index 87 °F
Dew Point 70 °F
Humidity 65%
Rainfall 0.00 in
Snow Depth Not available.
UV 0 out of 12
Pollen 9.50 out of 12
Air Quality Not available.
Flu Activity Not available.
METAR KDCA 302252Z 13009KT 10SM OVC048 28/21 A3011 RMK AO2 SLP197 CB DSNT NW-N MOV NE T02830211

More Conditions Fewer Conditions

10-Day Weather Forecast

Almanac

Astronomy

Aug. 30, 2014 Rise Set
Actual Time 6:35 AM EDT 7:42 PM EDT
Civil Twilight 6:08 AM EDT 8:09 PM EDT
Nautical Twilight 5:35 AM EDT 8:42 PM EDT
Astronomical Twilight 5:00 AM EDT 9:16 PM EDT
Moon 11:18 AM EDT 10:17 PM EDT
Length of Visible Light 14h 01m
Length of Day
13h 06m
Tomorrow will be 2m 26s shorter.
Waxing Crescent, 25% of the Moon is Illuminated
Today
Waxing Crescent
Sep 2
First Quarter
Sep 8
Full
Sep 15
Last Quarter
Sep 24
New

Today's Extremes

State Highs State Lows

Community

WunderPhotos

Upload Photos

1,748,670 photos uploaded!

Nearby

Snow Depth

Station Depth Elevation
No new snow has been reported.

Earthquake Activity

City Distance Mag. Time & Date
No recent earthquake activity has been reported nearby.
Minimum magnitude displayed is 2.5.

Coastal Water Temperatures

Place Temperature
Washington, DC 80.1 °F
Baltimore, MD 80.1 °F
Solomons Island, MD 79.0 °F

Nearby Weather Stations